createdAt,value
2018-08-18T00:00:27.600Z,27.75
2018-08-18T00:03:02.955Z,22.57
2018-08-18T00:05:36.674Z,21.90
2018-08-18T00:08:10.193Z,24.93
2018-08-18T00:10:43.770Z,22.77
2018-08-18T00:13:17.734Z,25.43
2018-08-18T00:15:51.331Z,25.87
2018-08-18T00:18:25.041Z,22.87
2018-08-18T00:20:58.754Z,23.43
2018-08-18T00:23:32.209Z,23.57
2018-08-18T00:26:07.622Z,21.20
2018-08-18T00:28:41.286Z,27.77
2018-08-18T00:31:15.923Z,22.17
2018-08-18T00:33:49.524Z,27.37
2018-08-18T00:36:23.043Z,23.47
2018-08-18T00:38:59.280Z,27.97
2018-08-18T00:41:33.602Z,29.70
2018-08-18T00:44:06.620Z,25.13
2018-08-18T00:46:39.584Z,23.07
2018-08-18T00:49:12.649Z,24.67
2018-08-18T00:51:45.671Z,27.73
2018-08-18T00:54:18.534Z,33.00
2018-08-18T00:56:51.391Z,25.80
2018-08-18T00:59:32.251Z,29.83
2018-08-18T01:02:05.124Z,26.30
2018-08-18T01:05:09.503Z,27.93
2018-08-18T01:07:42.408Z,27.73
2018-08-18T01:10:15.641Z,28.37
2018-08-18T01:12:48.662Z,32.10
2018-08-18T01:15:26.816Z,27.15
2018-08-18T01:18:00.022Z,27.33
2018-08-18T01:20:32.984Z,26.53
2018-08-18T01:23:05.925Z,31.50
2018-08-18T01:25:38.820Z,26.30
2018-08-18T01:28:12.036Z,27.17
2018-08-18T01:30:44.862Z,23.03
2018-08-18T01:33:17.729Z,24.67
2018-08-18T01:35:50.715Z,21.30
2018-08-18T01:38:24.692Z,25.25
2018-08-18T01:41:02.401Z,26.17
2018-08-18T01:43:36.313Z,28.60
2018-08-18T01:46:09.721Z,28.60
2018-08-18T01:48:43.290Z,23.43
2018-08-18T01:51:22.640Z,29.30
2018-08-18T01:53:56.709Z,25.53
2018-08-18T01:56:31.568Z,29.15
2018-08-18T01:59:05.349Z,28.63
2018-08-18T02:01:38.966Z,38.67
2018-08-18T02:04:12.735Z,39.47
2018-08-18T02:06:47.489Z,36.23
2018-08-18T02:09:21.067Z,38.37
2018-08-18T02:11:59.871Z,36.07
2018-08-18T02:14:33.533Z,38.10
2018-08-18T02:17:17.151Z,36.80
2018-08-18T02:19:51.613Z,36.63
2018-08-18T02:22:25.370Z,38.60
2018-08-18T02:24:59.431Z,38.03
2018-08-18T02:27:32.398Z,39.70
2018-08-18T02:30:14.164Z,38.40
2018-08-18T02:32:46.978Z,31.70
2018-08-18T02:35:20.273Z,32.70
2018-08-18T02:37:53.218Z,40.10
2018-08-18T02:40:26.505Z,35.00
2018-08-18T02:42:59.458Z,39.80
2018-08-18T02:45:33.429Z,39.42
2018-08-18T02:48:15.379Z,35.17
2018-08-18T02:50:54.600Z,37.47
2018-08-18T02:53:33.365Z,35.23
2018-08-18T02:56:06.338Z,43.60
2018-08-18T02:58:39.245Z,36.20
2018-08-18T03:01:12.993Z,35.53
2018-08-18T03:03:46.068Z,29.60
2018-08-18T03:06:19.049Z,30.03
2018-08-18T03:08:51.953Z,28.33
2018-08-18T03:11:24.915Z,30.13
2018-08-18T03:13:57.877Z,31.53
2018-08-18T03:16:30.853Z,20.85
2018-08-18T03:19:03.846Z,22.53
2018-08-18T03:21:44.187Z,21.60
2018-08-18T03:24:21.435Z,19.20
2018-08-18T03:26:57.787Z,64.73
2018-08-18T03:29:32.854Z,19.07
2018-08-18T03:32:05.726Z,21.63
2018-08-18T03:34:38.687Z,23.57
2018-08-18T03:37:23.941Z,19.77
2018-08-18T03:39:56.834Z,19.10
2018-08-18T03:42:37.117Z,24.63
2018-08-18T03:45:10.944Z,21.73
2018-08-18T03:47:44.007Z,19.60
2018-08-18T03:50:16.938Z,23.40
2018-08-18T03:52:49.945Z,21.50
2018-08-18T03:55:30.508Z,21.73
2018-08-18T03:58:03.327Z,19.90
2018-08-18T04:00:37.026Z,24.80
2018-08-18T04:03:10.038Z,18.23
2018-08-18T04:05:43.082Z,21.93
2018-08-18T04:08:16.534Z,18.30
2018-08-18T04:10:49.611Z,22.13
2018-08-18T04:13:22.484Z,23.60
2018-08-18T04:15:55.409Z,20.97
2018-08-18T04:18:29.610Z,24.27
2018-08-18T04:21:02.597Z,22.80
2018-08-18T04:23:35.533Z,23.50
2018-08-18T04:26:08.538Z,22.67
2018-08-18T04:28:42.398Z,25.60
2018-08-18T04:31:19.083Z,33.83
2018-08-18T04:33:52.874Z,22.67
2018-08-18T04:36:25.819Z,23.87
2018-08-18T04:38:59.912Z,28.17
2018-08-18T04:41:32.759Z,35.43
2018-08-18T04:44:05.781Z,22.67
2018-08-18T04:46:38.751Z,25.57
2018-08-18T04:49:11.725Z,37.00
2018-08-18T04:51:44.608Z,24.10
2018-08-18T04:54:17.595Z,26.23
2018-08-18T04:56:50.559Z,30.87
2018-08-18T04:59:26.190Z,25.95
2018-08-18T05:01:59.132Z,32.23
2018-08-18T05:04:33.271Z,30.70
2018-08-18T05:07:06.523Z,25.35
2018-08-18T05:09:39.505Z,27.17
2018-08-18T05:12:12.423Z,23.70
2018-08-18T05:14:45.379Z,28.50
2018-08-18T05:17:18.928Z,27.43
2018-08-18T05:19:55.583Z,26.73
2018-08-18T05:22:29.398Z,25.15
2018-08-18T05:25:02.289Z,20.27
2018-08-18T05:27:35.715Z,24.63
2018-08-18T05:30:09.236Z,16.83
2018-08-18T05:32:42.946Z,19.87
2018-08-18T05:35:16.348Z,18.73
2018-08-18T05:37:49.450Z,18.53
2018-08-18T05:40:22.397Z,19.73
2018-08-18T05:42:55.258Z,20.33
2018-08-18T05:45:32.037Z,26.50
2018-08-18T05:48:05.115Z,29.40
2018-08-18T05:50:38.086Z,24.03
2018-08-18T05:53:26.642Z,22.77
2018-08-18T05:55:59.879Z,30.80
2018-08-18T05:58:41.100Z,21.23
2018-08-18T06:01:25.096Z,18.05
2018-08-18T06:04:03.009Z,27.05
2018-08-18T06:06:35.942Z,31.13
2018-08-18T06:09:10.796Z,20.30
2018-08-18T06:11:43.959Z,23.43
2018-08-18T06:14:17.338Z,18.03
2018-08-18T06:16:50.416Z,17.93
2018-08-18T06:19:23.314Z,23.53
2018-08-18T06:21:56.246Z,14.77
2018-08-18T06:24:29.183Z,29.20
2018-08-18T06:27:02.010Z,20.70
2018-08-18T06:29:35.019Z,15.45
2018-08-18T06:32:10.509Z,19.20
2018-08-18T06:34:43.625Z,18.67
2018-08-18T06:37:16.637Z,24.70
2018-08-18T06:39:59.181Z,19.73
2018-08-18T06:42:42.418Z,19.03
2018-08-18T06:45:20.267Z,18.37
2018-08-18T06:47:53.074Z,14.57
2018-08-18T06:50:30.582Z,24.47
2018-08-18T06:53:03.911Z,16.90
2018-08-18T06:55:36.919Z,23.10
2018-08-18T06:58:11.371Z,19.60
2018-08-18T07:00:44.259Z,17.67
2018-08-18T07:03:26.120Z,21.63
2018-08-18T07:05:59.037Z,23.57
2018-08-18T07:08:32.560Z,22.00
2018-08-18T07:11:05.760Z,21.20
2018-08-18T07:13:38.608Z,22.77
2018-08-18T07:16:11.691Z,31.47
2018-08-18T07:18:44.867Z,24.67
2018-08-18T07:21:17.828Z,20.13
2018-08-18T07:23:50.613Z,21.00
2018-08-18T07:26:23.538Z,23.37
2018-08-18T07:28:56.592Z,22.73
2018-08-18T07:31:29.685Z,26.10
2018-08-18T07:34:02.585Z,24.10
2018-08-18T07:36:35.492Z,26.60
2018-08-18T07:39:09.816Z,32.67
2018-08-18T07:41:43.886Z,23.17
2018-08-18T07:44:16.774Z,28.20
2018-08-18T07:46:49.852Z,22.43
2018-08-18T07:49:22.772Z,26.73
2018-08-18T07:51:55.756Z,31.67
2018-08-18T07:54:28.638Z,25.50
2018-08-18T07:57:01.446Z,24.40
2018-08-18T07:59:34.523Z,32.43
2018-08-18T08:02:07.554Z,32.40
2018-08-18T08:04:40.442Z,28.60
2018-08-18T08:07:14.138Z,36.57
2018-08-18T08:09:47.840Z,38.00
2018-08-18T08:12:20.779Z,34.58
2018-08-18T08:14:53.713Z,26.67
2018-08-18T08:17:26.805Z,33.43
2018-08-18T08:19:59.784Z,38.10
2018-08-18T08:22:32.648Z,34.27
2018-08-18T08:25:05.631Z,27.50
2018-08-18T08:27:38.642Z,33.53
2018-08-18T08:30:13.908Z,28.50
2018-08-18T08:32:47.311Z,39.43
2018-08-18T08:35:20.198Z,29.40
2018-08-18T08:37:54.941Z,28.03
2018-08-18T08:40:28.227Z,30.40
2018-08-18T08:43:01.070Z,39.37
2018-08-18T08:45:33.973Z,37.30
2018-08-18T08:48:06.915Z,29.40
2018-08-18T08:50:39.862Z,31.83
2018-08-18T08:53:12.825Z,36.40
2018-08-18T08:55:45.906Z,38.60
2018-08-18T08:58:18.873Z,39.37
2018-08-18T09:00:51.790Z,33.77
2018-08-18T09:03:24.607Z,43.80
2018-08-18T09:08:52.366Z,35.90
2018-08-18T09:11:25.579Z,42.13
2018-08-18T09:14:03.219Z,38.00
2018-08-18T09:16:36.370Z,46.50
2018-08-18T09:19:15.284Z,38.00
2018-08-18T09:21:52.178Z,53.10
2018-08-18T09:24:27.387Z,44.88
2018-08-18T09:27:04.729Z,36.50
2018-08-18T09:29:51.328Z,42.83
2018-08-18T09:32:24.228Z,44.75
2018-08-18T09:34:57.037Z,44.57
2018-08-18T09:37:29.914Z,52.35
2018-08-18T09:40:02.982Z,37.67
2018-08-18T09:42:35.855Z,41.67
2018-08-18T09:45:08.970Z,46.27
2018-08-18T09:47:41.990Z,56.70
2018-08-18T09:50:15.155Z,49.23
2018-08-18T09:52:48.148Z,55.87
2018-08-18T09:55:21.428Z,61.57
2018-08-18T09:57:54.307Z,47.13
2018-08-18T10:00:56.995Z,77.53
2018-08-18T10:03:30.234Z,61.60
2018-08-18T10:06:03.232Z,61.13
2018-08-18T10:08:36.236Z,59.53
2018-08-18T10:11:09.320Z,79.80
2018-08-18T10:13:42.105Z,71.53
2018-08-18T10:16:15.419Z,79.77
2018-08-18T10:18:50.558Z,73.63
2018-08-18T10:21:23.722Z,65.13
2018-08-18T10:23:56.619Z,71.57
2018-08-18T10:26:29.566Z,71.85
2018-08-18T10:29:12.793Z,73.67
2018-08-18T10:31:56.115Z,68.67
2018-08-18T10:34:30.391Z,91.27
2018-08-18T10:37:05.035Z,90.93
2018-08-18T10:39:39.218Z,90.17
2018-08-18T10:42:17.439Z,91.70
2018-08-18T10:44:55.153Z,101.23
2018-08-18T10:47:29.116Z,97.70
2018-08-18T10:50:10.892Z,90.17
2018-08-18T10:52:52.560Z,90.63
2018-08-18T10:55:25.713Z,107.37
2018-08-18T10:58:04.089Z,96.03
2018-08-18T11:00:38.223Z,90.43
2018-08-18T11:03:11.178Z,102.27
2018-08-18T11:05:43.933Z,108.87
2018-08-18T11:08:16.881Z,88.13
2018-08-18T11:10:49.876Z,82.70
2018-08-18T11:13:22.772Z,90.33
2018-08-18T11:15:55.783Z,101.40
2018-08-18T11:18:28.749Z,81.87
2018-08-18T11:21:01.705Z,96.57
2018-08-18T11:23:34.666Z,91.07
2018-08-18T11:26:07.708Z,86.77
2018-08-18T11:28:40.732Z,87.23
2018-08-18T11:31:13.772Z,88.93
2018-08-18T11:33:47.455Z,80.03
2018-08-18T11:36:20.376Z,81.65
2018-08-18T11:38:54.327Z,78.47
2018-08-18T11:41:27.698Z,80.05
2018-08-18T11:44:00.704Z,72.40
2018-08-18T11:46:38.093Z,72.03
2018-08-18T11:49:11.044Z,89.27
2018-08-18T11:51:45.119Z,69.57
2018-08-18T11:54:18.009Z,78.33
2018-08-18T11:56:56.897Z,66.17
2018-08-18T11:59:29.830Z,70.97
2018-08-18T12:02:02.994Z,63.57
2018-08-18T12:04:36.348Z,67.17
2018-08-18T12:07:09.173Z,83.57
2018-08-18T12:09:45.636Z,65.87
2018-08-18T12:12:18.927Z,62.97
2018-08-18T12:14:51.755Z,64.23
2018-08-18T12:17:25.703Z,54.90
2018-08-18T12:20:04.585Z,71.57
2018-08-18T12:22:37.812Z,73.80
2018-08-18T12:25:22.523Z,65.87
2018-08-18T12:27:55.659Z,61.13
2018-08-18T12:30:35.106Z,61.63
2018-08-18T12:33:11.541Z,70.30
2018-08-18T12:35:45.195Z,66.57
2018-08-18T12:38:18.140Z,66.23
2018-08-18T12:40:54.227Z,61.90
2018-08-18T12:43:31.348Z,54.98
2018-08-18T12:46:04.357Z,53.83
2018-08-18T12:48:41.346Z,49.77
2018-08-18T12:51:16.316Z,47.53
2018-08-18T12:53:51.722Z,46.97
2018-08-18T12:56:26.684Z,52.50
2018-08-18T12:58:59.595Z,45.23
2018-08-18T13:01:46.430Z,53.53
2018-08-18T13:04:21.012Z,49.60
2018-08-18T13:06:54.590Z,45.70
2018-08-18T13:09:28.565Z,38.97
2018-08-18T13:12:03.839Z,43.83
2018-08-18T13:14:36.704Z,42.97
2018-08-18T13:17:10.667Z,48.90
2018-08-18T13:19:44.032Z,49.90
2018-08-18T13:22:17.725Z,42.67
2018-08-18T13:24:50.620Z,49.73
2018-08-18T13:27:23.569Z,48.50
2018-08-18T13:29:56.471Z,47.53
2018-08-18T13:32:30.664Z,48.63
2018-08-18T13:35:03.620Z,49.53
2018-08-18T13:37:36.596Z,49.33
2018-08-18T13:40:12.519Z,51.53
2018-08-18T13:42:45.957Z,48.03
2018-08-18T13:45:19.318Z,45.20
2018-08-18T13:47:52.645Z,49.23
2018-08-18T13:50:25.452Z,44.95
2018-08-18T13:52:58.243Z,61.47
2018-08-18T13:55:37.538Z,47.78
2018-08-18T13:58:12.525Z,44.70
2018-08-18T14:00:45.526Z,49.40
2018-08-18T14:03:31.546Z,45.87
2018-08-18T14:06:04.566Z,43.40
2018-08-18T14:08:37.549Z,51.00
2018-08-18T14:11:10.399Z,42.07
2018-08-18T14:16:28.051Z,42.27
2018-08-18T14:19:01.222Z,46.83
2018-08-18T14:21:34.207Z,51.70
2018-08-18T14:24:07.162Z,40.13
2018-08-18T14:26:41.051Z,40.70
2018-08-18T14:29:14.140Z,42.37
2018-08-18T14:31:47.072Z,34.50
2018-08-18T14:34:20.397Z,44.38
2018-08-18T14:36:54.719Z,55.07
2018-08-18T14:39:39.299Z,40.37
2018-08-18T14:42:12.813Z,37.50
2018-08-18T14:44:46.035Z,52.53
2018-08-18T14:47:19.260Z,46.67
2018-08-18T14:49:52.783Z,37.83
2018-08-18T14:52:26.653Z,43.60
2018-08-18T14:54:59.621Z,45.83
2018-08-18T14:57:32.571Z,38.15
2018-08-18T15:00:06.042Z,47.13
2018-08-18T15:02:39.036Z,46.33
2018-08-18T15:05:11.957Z,38.23
2018-08-18T15:07:48.922Z,36.50
2018-08-18T15:10:33.184Z,43.23
2018-08-18T15:13:06.775Z,43.47
2018-08-18T15:15:39.945Z,37.63
2018-08-18T15:18:16.932Z,45.67
2018-08-18T15:20:49.975Z,34.60
2018-08-18T15:23:22.911Z,39.42
2018-08-18T15:25:55.855Z,41.97
2018-08-18T15:28:30.781Z,43.23
2018-08-18T15:31:03.691Z,39.50
2018-08-18T15:33:37.891Z,38.40
2018-08-18T15:36:19.668Z,37.13
2018-08-18T15:39:07.730Z,36.03
2018-08-18T15:41:41.197Z,36.10
2018-08-18T15:44:15.456Z,32.50
2018-08-18T15:46:48.427Z,40.10
2018-08-18T15:49:21.392Z,37.37
2018-08-18T15:51:54.427Z,49.47
2018-08-18T15:54:29.055Z,31.27
2018-08-18T15:57:02.723Z,40.87
2018-08-18T15:59:35.805Z,44.67
2018-08-18T16:02:08.959Z,40.07
2018-08-18T16:04:41.827Z,40.73
2018-08-18T16:07:15.561Z,47.03
2018-08-18T16:09:49.396Z,36.73
2018-08-18T16:12:22.853Z,39.63
2018-08-18T16:14:56.076Z,35.97
2018-08-18T16:17:29.307Z,47.30
2018-08-18T16:20:03.126Z,48.13
2018-08-18T16:22:36.308Z,42.67
2018-08-18T16:25:10.591Z,46.90
2018-08-18T16:27:45.767Z,34.43
2018-08-18T16:30:19.793Z,42.73
2018-08-18T16:33:02.335Z,45.63
2018-08-18T16:35:38.638Z,37.37
2018-08-18T16:38:14.023Z,38.97
2018-08-18T16:40:50.410Z,38.20
2018-08-18T16:43:24.408Z,39.70
2018-08-18T16:46:03.579Z,41.10
2018-08-18T16:48:37.766Z,41.50
2018-08-18T16:51:13.041Z,41.10
2018-08-18T16:53:46.914Z,54.47
2018-08-18T16:56:32.811Z,48.65
2018-08-18T16:59:07.932Z,37.97
2018-08-18T17:01:42.501Z,38.70
2018-08-18T17:04:24.725Z,48.17
2018-08-18T17:06:58.235Z,49.43
2018-08-18T17:09:42.016Z,38.10
2018-08-18T17:12:34.203Z,40.60
2018-08-18T17:15:07.156Z,47.80
2018-08-18T17:17:40.235Z,41.67
2018-08-18T17:20:13.490Z,47.67
2018-08-18T17:22:47.527Z,52.27
2018-08-18T17:25:20.410Z,49.17
2018-08-18T17:27:53.274Z,42.40
2018-08-18T17:30:26.191Z,41.37
2018-08-18T17:32:59.373Z,45.40
2018-08-18T17:35:33.066Z,39.92
2018-08-18T17:38:06.082Z,47.78
2018-08-18T17:40:39.070Z,50.30
2018-08-18T17:43:11.991Z,46.80
2018-08-18T17:46:04.437Z,53.63
2018-08-18T17:48:43.316Z,39.20
2018-08-18T17:51:17.087Z,43.63
2018-08-18T17:53:54.739Z,48.47
2018-08-18T17:56:27.590Z,45.12
2018-08-18T17:59:00.589Z,57.10
2018-08-18T18:01:33.998Z,50.23
2018-08-18T18:04:06.882Z,46.10
2018-08-18T18:06:39.866Z,46.03
2018-08-18T18:09:12.880Z,45.80
2018-08-18T18:11:45.891Z,45.43
2018-08-18T18:14:18.810Z,39.30
2018-08-18T18:16:51.891Z,42.80
2018-08-18T18:19:24.817Z,40.97
2018-08-18T18:21:57.821Z,44.73
2018-08-18T18:24:39.581Z,49.73
2018-08-18T18:27:12.447Z,50.20
2018-08-18T18:29:46.971Z,45.43
2018-08-18T18:32:19.906Z,40.00
2018-08-18T18:34:52.848Z,42.07
2018-08-18T18:37:25.821Z,42.13
2018-08-18T18:40:05.464Z,45.13
2018-08-18T18:42:38.355Z,43.50
2018-08-18T18:45:12.674Z,37.37
2018-08-18T18:47:48.300Z,41.33
2018-08-18T18:50:21.863Z,41.83
2018-08-18T18:55:31.824Z,41.30
2018-08-18T18:58:15.332Z,32.50
2018-08-18T19:00:58.051Z,38.63
2018-08-18T19:03:30.980Z,40.17
2018-08-18T19:06:03.946Z,34.63
2018-08-18T19:08:39.826Z,40.17
2018-08-18T19:11:12.690Z,42.50
2018-08-18T19:13:45.553Z,36.27
2018-08-18T19:16:18.509Z,38.17
2018-08-18T19:18:51.524Z,42.00
2018-08-18T19:21:24.467Z,38.10
2018-08-18T19:23:57.462Z,46.23
2018-08-18T19:26:35.005Z,38.53
2018-08-18T19:29:07.894Z,39.93
2018-08-18T19:31:40.786Z,39.73
2018-08-18T19:34:17.201Z,37.47
2018-08-18T19:37:02.386Z,35.00
2018-08-18T19:39:37.739Z,42.77
2018-08-18T19:42:15.584Z,37.53
2018-08-18T19:44:50.862Z,38.70
2018-08-18T19:47:28.159Z,42.27
2018-08-18T19:50:01.177Z,36.93
2018-08-18T19:52:34.245Z,36.70
2018-08-18T19:55:07.820Z,49.40
2018-08-18T19:57:41.595Z,38.03
2018-08-18T20:00:20.951Z,35.70
2018-08-18T20:02:59.353Z,37.13
2018-08-18T20:05:33.460Z,35.25
2018-08-18T20:08:06.481Z,41.00
2018-08-18T20:11:01.556Z,39.10
2018-08-18T20:13:34.708Z,33.40
2018-08-18T20:16:07.875Z,44.60
2018-08-18T20:18:41.051Z,45.87
2018-08-18T20:29:17.810Z,40.87
2018-08-18T20:32:06.186Z,47.53
2018-08-18T20:34:39.161Z,29.90
2018-08-18T20:37:12.136Z,36.43
2018-08-18T20:39:44.961Z,45.00
2018-08-18T20:42:18.328Z,40.17
2018-08-18T20:44:52.193Z,51.30
2018-08-18T20:47:25.160Z,40.00
2018-08-18T20:49:58.546Z,41.23
2018-08-18T20:52:31.753Z,44.07
2018-08-18T20:55:05.661Z,39.60
2018-08-18T20:57:38.619Z,41.93
2018-08-18T21:00:14.147Z,37.97
2018-08-18T21:02:47.086Z,48.77
2018-08-18T21:05:20.077Z,46.68
2018-08-18T21:07:52.977Z,47.47
2018-08-18T21:10:26.345Z,48.68
2018-08-18T21:13:00.296Z,32.73
2018-08-18T21:15:33.291Z,54.75
2018-08-18T21:18:10.281Z,45.97
2018-08-18T21:20:43.193Z,46.67
2018-08-18T21:23:16.101Z,46.10
2018-08-18T21:25:53.005Z,61.37
2018-08-18T21:28:28.942Z,38.83
2018-08-18T21:31:01.835Z,42.13
2018-08-18T21:33:35.816Z,47.33
2018-08-18T21:36:09.425Z,51.73
2018-08-18T21:38:42.299Z,48.37
2018-08-18T21:41:15.291Z,44.10
2018-08-18T21:43:49.231Z,49.70
2018-08-18T21:46:22.077Z,52.50
2018-08-18T21:48:57.420Z,47.57
2018-08-18T21:51:30.317Z,40.67
2018-08-18T21:54:03.214Z,53.10
2018-08-18T21:56:40.350Z,55.90
2018-08-18T21:59:15.725Z,58.93
2018-08-18T22:01:48.569Z,50.57
2018-08-18T22:04:21.506Z,51.18
2018-08-18T22:06:54.404Z,47.67
2018-08-18T22:09:33.361Z,49.93
2018-08-18T22:12:06.314Z,46.90
2018-08-18T22:14:39.292Z,53.23
2018-08-18T22:17:12.750Z,50.47
2018-08-18T22:19:45.823Z,69.97
2018-08-18T22:22:23.077Z,54.00
2018-08-18T22:24:56.847Z,63.87
2018-08-18T22:27:29.744Z,70.77
2018-08-18T22:30:02.677Z,58.47
2018-08-18T22:32:35.569Z,47.90
2018-08-18T22:35:08.718Z,51.50
2018-08-18T22:37:41.762Z,57.07
2018-08-18T22:40:15.605Z,46.73
2018-08-18T22:42:48.498Z,51.63
2018-08-18T22:45:29.623Z,48.60
2018-08-18T22:48:02.556Z,52.67
2018-08-18T22:50:35.386Z,54.03
2018-08-18T22:53:08.312Z,67.30
2018-08-18T22:55:41.903Z,65.77
2018-08-18T22:58:15.190Z,48.63
2018-08-18T23:00:52.059Z,54.97
2018-08-18T23:03:25.033Z,46.53
2018-08-18T23:05:58.276Z,55.40
2018-08-18T23:08:31.123Z,44.57
2018-08-18T23:11:04.019Z,53.33
2018-08-18T23:13:36.906Z,56.23
2018-08-18T23:16:09.899Z,52.27
2018-08-18T23:18:42.775Z,62.77
2018-08-18T23:21:22.838Z,47.43
2018-08-18T23:23:55.794Z,47.63
2018-08-18T23:26:28.835Z,50.17
2018-08-18T23:29:01.793Z,50.07
2018-08-18T23:31:34.872Z,47.23
2018-08-18T23:34:08.059Z,57.77
2018-08-18T23:36:41.310Z,43.93
2018-08-18T23:39:16.656Z,46.43
2018-08-18T23:41:50.078Z,42.13
2018-08-18T23:44:23.521Z,49.53
2018-08-18T23:46:57.053Z,40.47
2018-08-18T23:49:31.681Z,35.60
2018-08-18T23:52:06.222Z,58.63
2018-08-18T23:54:40.027Z,48.03
2018-08-18T23:57:14.017Z,48.50
2018-08-18T23:59:47.785Z,51.80
